createdAt,value
2023-04-18T00:02:02.955Z,80.17
2023-04-18T00:04:50.651Z,80.05
2023-04-18T00:07:36.617Z,80.00
2023-04-18T00:10:22.457Z,80.39
2023-04-18T00:13:08.368Z,80.62
2023-04-18T00:15:54.333Z,80.91
2023-04-18T00:18:40.253Z,80.77
2023-04-18T00:21:25.893Z,80.82
2023-04-18T00:24:11.696Z,80.78
2023-04-18T00:26:57.288Z,80.79
2023-04-18T00:29:42.602Z,80.54
2023-04-18T00:32:28.536Z,81.12
2023-04-18T00:35:14.241Z,80.90
2023-04-18T00:37:59.852Z,80.90
2023-04-18T00:40:45.357Z,81.01
2023-04-18T00:43:30.757Z,81.14
2023-04-18T00:46:16.294Z,81.18
2023-04-18T00:49:02.542Z,81.36
2023-04-18T00:51:48.379Z,81.23
2023-04-18T00:54:34.057Z,81.55
2023-04-18T00:57:19.385Z,81.12
2023-04-18T01:00:10.143Z,81.08
2023-04-18T01:02:56.114Z,80.84
2023-04-18T01:05:43.178Z,81.71
2023-04-18T01:08:28.626Z,81.27
2023-04-18T01:11:16.500Z,81.45
2023-04-18T01:14:04.204Z,81.53
2023-04-18T01:16:49.881Z,81.65
2023-04-18T01:19:40.810Z,81.40
2023-04-18T01:22:26.989Z,81.43
2023-04-18T01:25:12.501Z,81.40
2023-04-18T01:27:58.846Z,81.93
2023-04-18T01:30:46.558Z,81.84
2023-04-18T01:33:32.045Z,81.84
2023-04-18T01:36:17.681Z,81.78
2023-04-18T01:39:04.078Z,81.93
2023-04-18T01:41:49.796Z,82.09
2023-04-18T01:44:35.438Z,81.89
2023-04-18T01:47:20.921Z,81.86
2023-04-18T01:50:06.862Z,81.78
2023-04-18T01:52:52.501Z,81.95
2023-04-18T01:55:37.907Z,81.95
2023-04-18T01:58:25.253Z,82.16
2023-04-18T02:01:11.149Z,82.80
2023-04-18T02:03:56.882Z,82.40
2023-04-18T02:06:42.882Z,82.40
2023-04-18T02:09:28.621Z,81.97
2023-04-18T02:12:13.995Z,82.65
2023-04-18T02:14:59.624Z,82.36
2023-04-18T02:17:45.897Z,82.67
2023-04-18T02:20:34.950Z,82.31
2023-04-18T02:23:20.392Z,82.93
2023-04-18T02:26:06.054Z,82.90
2023-04-18T02:28:51.941Z,82.88
2023-04-18T02:31:40.850Z,82.61
2023-04-18T02:34:26.512Z,82.67
2023-04-18T02:37:12.128Z,82.85
2023-04-18T02:39:59.600Z,82.74
2023-04-18T02:42:48.516Z,83.09
2023-04-18T02:45:34.080Z,83.02
2023-04-18T02:48:19.520Z,83.01
2023-04-18T02:51:06.421Z,83.34
2023-04-18T02:53:55.180Z,83.24
2023-04-18T02:56:42.971Z,83.36
2023-04-18T02:59:34.777Z,83.56
2023-04-18T03:02:31.958Z,83.67
2023-04-18T03:05:24.730Z,83.82
2023-04-18T03:08:13.858Z,83.49
2023-04-18T03:10:59.719Z,83.64
2023-04-18T03:13:47.184Z,83.94
2023-04-18T03:16:33.429Z,83.79
2023-04-18T03:19:22.024Z,84.06
2023-04-18T03:22:10.053Z,84.17
2023-04-18T03:25:02.845Z,84.01
2023-04-18T03:28:08.922Z,84.24
2023-04-18T03:30:54.401Z,84.24
2023-04-18T03:33:39.988Z,84.42
2023-04-18T03:36:28.920Z,84.70
2023-04-18T03:39:14.820Z,84.50
2023-04-18T03:42:02.134Z,84.81
2023-04-18T03:44:47.796Z,84.45
2023-04-18T03:47:33.713Z,84.71
2023-04-18T03:50:19.818Z,84.99
2023-04-18T03:53:06.752Z,84.88
2023-04-18T03:55:54.775Z,84.83
2023-04-18T03:58:43.743Z,84.54
2023-04-18T04:01:29.319Z,84.98
2023-04-18T04:04:15.663Z,84.75
2023-04-18T04:07:01.841Z,84.97
2023-04-18T04:09:48.902Z,85.03
2023-04-18T04:12:34.860Z,85.15
2023-04-18T04:15:20.519Z,85.03
2023-04-18T04:18:11.636Z,85.63
2023-04-18T04:21:01.152Z,85.48
2023-04-18T04:23:57.035Z,85.29
2023-04-18T04:26:50.851Z,85.37
2023-04-18T04:29:41.268Z,85.08
2023-04-18T04:32:27.665Z,85.39
2023-04-18T04:35:13.752Z,85.31
2023-04-18T04:38:01.734Z,85.19
2023-04-18T04:40:54.064Z,85.56
2023-04-18T04:43:41.345Z,85.46
2023-04-18T04:46:30.393Z,85.68
2023-04-18T04:49:16.758Z,85.61
2023-04-18T04:52:03.148Z,85.55
2023-04-18T04:54:49.731Z,85.94
2023-04-18T04:57:37.631Z,86.22
2023-04-18T05:00:34.005Z,86.01
2023-04-18T05:03:19.917Z,85.88
2023-04-18T05:06:05.972Z,86.30
2023-04-18T05:08:51.680Z,86.07
2023-04-18T05:11:37.366Z,86.04
2023-04-18T05:14:23.146Z,85.75
2023-04-18T05:17:08.943Z,86.00
2023-04-18T05:19:54.733Z,85.99
2023-04-18T05:22:40.566Z,86.02
2023-04-18T05:25:26.950Z,86.58
2023-04-18T05:28:12.588Z,86.24
2023-04-18T05:31:01.503Z,86.51
2023-04-18T05:33:47.278Z,86.59
2023-04-18T05:36:33.116Z,86.12
2023-04-18T05:39:18.765Z,86.18
2023-04-18T05:42:04.257Z,86.40
2023-04-18T05:44:49.793Z,86.39
2023-04-18T05:47:35.573Z,86.60
2023-04-18T05:50:21.651Z,86.77
2023-04-18T05:53:07.292Z,86.96
2023-04-18T05:55:52.838Z,86.92
2023-04-18T05:58:38.530Z,86.67
2023-04-18T06:01:24.050Z,86.51
2023-04-18T06:04:09.738Z,86.63
2023-04-18T06:06:54.989Z,86.81
2023-04-18T06:09:40.514Z,86.70
2023-04-18T06:12:26.162Z,86.75
2023-04-18T06:15:11.769Z,86.52
2023-04-18T06:17:57.252Z,87.27
2023-04-18T06:20:44.058Z,86.69
2023-04-18T06:23:29.827Z,86.62
2023-04-18T06:26:15.925Z,87.12
2023-04-18T06:29:01.423Z,86.88
2023-04-18T06:31:48.534Z,86.87
2023-04-18T06:34:34.155Z,87.15
2023-04-18T06:37:20.016Z,86.45
2023-04-18T06:40:06.588Z,87.04
2023-04-18T06:42:52.412Z,86.38
2023-04-18T06:45:38.345Z,86.36
2023-04-18T06:48:23.993Z,85.85
2023-04-18T06:51:09.452Z,86.76
2023-04-18T06:53:55.003Z,86.47
2023-04-18T06:56:40.819Z,86.39
2023-04-18T06:59:27.215Z,86.28
2023-04-18T07:02:13.242Z,85.93
2023-04-18T07:04:58.954Z,85.75
2023-04-18T07:07:44.543Z,86.00
2023-04-18T07:10:30.124Z,85.97
2023-04-18T07:13:16.131Z,85.85
2023-04-18T07:16:02.191Z,85.26
2023-04-18T07:18:47.457Z,85.63
2023-04-18T07:21:33.052Z,85.73
2023-04-18T07:24:18.416Z,85.65
2023-04-18T07:27:03.838Z,86.20
2023-04-18T07:29:51.056Z,85.86
2023-04-18T07:32:36.566Z,86.13
2023-04-18T07:35:22.576Z,86.40
2023-04-18T07:38:08.624Z,85.51
2023-04-18T07:40:58.676Z,85.90
2023-04-18T07:43:44.982Z,86.22
2023-04-18T07:46:32.441Z,85.85
2023-04-18T07:49:18.352Z,85.85
2023-04-18T07:52:04.525Z,85.47
2023-04-18T07:54:50.441Z,85.67
2023-04-18T07:57:35.923Z,85.29
2023-04-18T08:00:21.638Z,84.90
2023-04-18T08:03:07.809Z,85.40
2023-04-18T08:05:53.730Z,84.52
2023-04-18T08:08:39.535Z,85.14
2023-04-18T08:11:24.693Z,84.86
2023-04-18T08:14:10.189Z,84.31
2023-04-18T08:16:55.800Z,84.64
2023-04-18T08:19:41.520Z,84.17
2023-04-18T08:22:26.894Z,83.80
2023-04-18T08:25:12.721Z,83.77
2023-04-18T08:27:58.939Z,84.60
2023-04-18T08:30:48.784Z,84.49
2023-04-18T08:33:34.516Z,84.02
2023-04-18T08:36:20.123Z,83.96
2023-04-18T08:39:06.500Z,84.13
2023-04-18T08:41:59.555Z,83.64
2023-04-18T08:44:46.773Z,84.44
2023-04-18T08:47:35.359Z,83.92
2023-04-18T08:50:21.490Z,84.01
2023-04-18T08:53:07.564Z,84.30
2023-04-18T08:55:54.519Z,83.76
2023-04-18T08:58:40.455Z,84.34
2023-04-18T09:01:57.215Z,84.04
2023-04-18T09:04:45.517Z,83.81
2023-04-18T09:07:31.143Z,84.20
2023-04-18T09:10:26.430Z,84.03
2023-04-18T09:13:12.550Z,83.96
2023-04-18T09:15:59.248Z,84.06
2023-04-18T09:19:13.131Z,83.75
2023-04-18T09:22:01.060Z,84.16
2023-04-18T09:24:52.838Z,83.09
2023-04-18T09:27:38.307Z,83.20
2023-04-18T09:30:33.142Z,83.35
2023-04-18T09:33:29.149Z,83.38
2023-04-18T09:36:28.657Z,83.46
2023-04-18T09:39:27.304Z,83.23
2023-04-18T09:42:13.981Z,83.01
2023-04-18T09:45:05.613Z,83.40
2023-04-18T09:47:52.175Z,82.66
2023-04-18T09:50:40.290Z,82.84
2023-04-18T09:53:26.685Z,82.51
2023-04-18T09:56:24.031Z,82.50
2023-04-18T09:59:11.400Z,82.95
2023-04-18T10:01:59.229Z,82.71
2023-04-18T10:04:46.946Z,82.18
2023-04-18T10:07:33.183Z,82.57
2023-04-18T10:10:19.217Z,82.24
2023-04-18T10:13:07.126Z,82.52
2023-04-18T10:15:52.928Z,82.24
2023-04-18T10:18:38.888Z,81.53
2023-04-18T10:21:24.780Z,81.49
2023-04-18T10:24:48.664Z,81.31
2023-04-18T10:27:49.691Z,81.42
2023-04-18T10:30:42.575Z,81.34
2023-04-18T10:33:42.416Z,81.36
2023-04-18T10:36:28.781Z,81.12
2023-04-18T10:39:23.240Z,80.96
2023-04-18T10:42:08.825Z,80.83
2023-04-18T10:45:17.280Z,81.15
2023-04-18T10:48:22.097Z,80.83
2023-04-18T10:51:15.724Z,80.61
2023-04-18T10:54:02.371Z,80.43
2023-04-18T10:56:55.189Z,80.47
2023-04-18T10:59:51.173Z,80.10
2023-04-18T11:02:39.186Z,80.40
2023-04-18T11:05:28.014Z,80.61
2023-04-18T11:08:24.263Z,80.46
2023-04-18T11:11:11.412Z,80.79
2023-04-18T11:13:58.672Z,80.68
2023-04-18T11:16:44.226Z,80.05
2023-04-18T11:19:29.957Z,80.21
2023-04-18T11:22:15.999Z,80.52
2023-04-18T11:25:07.236Z,80.82
2023-04-18T11:27:52.984Z,80.90
2023-04-18T11:30:40.862Z,80.57
2023-04-18T11:33:29.078Z,80.46
2023-04-18T11:36:14.826Z,80.73
2023-04-18T11:39:01.055Z,80.93
2023-04-18T11:41:50.489Z,81.33
2023-04-18T11:44:39.764Z,81.34
2023-04-18T11:47:28.797Z,80.97
2023-04-18T11:50:14.730Z,81.53
2023-04-18T11:52:59.943Z,81.24
2023-04-18T11:55:55.968Z,81.80
2023-04-18T11:58:42.207Z,81.04
2023-04-18T12:01:27.865Z,81.63
2023-04-18T12:04:14.456Z,81.56
2023-04-18T12:07:00.977Z,81.64
2023-04-18T12:09:46.657Z,81.52
2023-04-18T12:12:32.371Z,81.58
2023-04-18T12:15:18.949Z,81.36
2023-04-18T12:18:06.210Z,81.08
2023-04-18T12:20:54.206Z,81.41
2023-04-18T12:23:42.524Z,80.46
2023-04-18T12:26:27.997Z,80.36
2023-04-18T12:29:13.732Z,80.87
2023-04-18T12:31:59.355Z,80.55
2023-04-18T12:34:45.037Z,80.22
2023-04-18T12:37:30.720Z,79.39
2023-04-18T12:40:19.058Z,79.32
2023-04-18T12:43:04.765Z,79.68
2023-04-18T12:45:50.540Z,79.75
2023-04-18T12:48:36.371Z,79.05
2023-04-18T12:51:22.972Z,78.99
2023-04-18T12:54:08.997Z,78.94
2023-04-18T12:56:54.657Z,78.55
2023-04-18T12:59:40.095Z,78.35
2023-04-18T13:02:26.646Z,78.03
2023-04-18T13:05:14.320Z,77.35
2023-04-18T13:08:15.392Z,77.63
2023-04-18T13:11:02.853Z,78.01
2023-04-18T13:13:48.417Z,78.06
2023-04-18T13:16:33.829Z,77.64
2023-04-18T13:19:19.261Z,78.28
2023-04-18T13:22:04.865Z,77.97
2023-04-18T13:24:50.581Z,78.07
2023-04-18T13:27:41.816Z,78.04
2023-04-18T13:30:27.751Z,77.93
2023-04-18T13:33:13.463Z,77.39
2023-04-18T13:35:58.813Z,77.41
2023-04-18T13:38:44.194Z,78.20
2023-04-18T13:41:30.146Z,78.17
2023-04-18T13:44:15.981Z,78.21
2023-04-18T13:47:02.803Z,77.42
2023-04-18T13:49:48.384Z,78.00
2023-04-18T13:52:33.721Z,77.54
2023-04-18T13:55:19.810Z,77.32
2023-04-18T13:58:07.062Z,77.42
2023-04-18T14:00:54.036Z,77.60
2023-04-18T14:03:41.277Z,77.14
2023-04-18T14:06:28.961Z,77.61
2023-04-18T14:09:14.676Z,78.15
2023-04-18T14:12:00.306Z,77.53
2023-04-18T14:14:45.974Z,77.32
2023-04-18T14:17:31.581Z,77.37
2023-04-18T14:20:20.523Z,77.50
2023-04-18T14:23:06.075Z,77.26
2023-04-18T14:25:51.825Z,77.39
2023-04-18T14:28:37.553Z,77.37
2023-04-18T14:31:23.081Z,77.84
2023-04-18T14:34:09.602Z,77.81
2023-04-18T14:36:55.417Z,77.25
2023-04-18T14:39:41.151Z,77.29
2023-04-18T14:42:27.312Z,77.89
2023-04-18T14:45:12.906Z,77.62
2023-04-18T14:47:59.279Z,77.25
2023-04-18T14:50:44.900Z,77.50
2023-04-18T14:53:30.647Z,77.77
2023-04-18T14:56:24.293Z,77.32
2023-04-18T14:59:10.031Z,77.58
2023-04-18T15:01:55.774Z,77.62
2023-04-18T15:04:41.206Z,77.36
2023-04-18T15:07:27.027Z,77.59
2023-04-18T15:10:13.108Z,77.53
2023-04-18T15:12:58.124Z,77.26
2023-04-18T15:15:50.979Z,77.20
2023-04-18T15:18:37.007Z,77.51
2023-04-18T15:21:22.834Z,77.81
2023-04-18T15:24:08.347Z,77.67
2023-04-18T15:26:53.885Z,77.47
2023-04-18T15:29:39.434Z,77.31
2023-04-18T15:32:25.049Z,77.63
2023-04-18T15:35:11.835Z,77.66
2023-04-18T15:37:57.759Z,77.97
2023-04-18T15:40:46.117Z,77.84
2023-04-18T15:43:32.109Z,78.25
2023-04-18T15:46:17.685Z,78.11
2023-04-18T15:49:03.500Z,78.57
2023-04-18T15:51:48.885Z,78.79
2023-04-18T15:54:35.733Z,78.50
2023-04-18T15:57:21.861Z,79.00
2023-04-18T16:00:16.225Z,79.11
2023-04-18T16:03:01.891Z,78.99
2023-04-18T16:05:47.806Z,78.91
2023-04-18T16:08:33.580Z,78.99
2023-04-18T16:11:21.705Z,79.49
2023-04-18T16:14:07.483Z,79.33
2023-04-18T16:16:55.020Z,79.60
2023-04-18T16:19:41.065Z,79.88
2023-04-18T16:22:26.877Z,79.97
2023-04-18T16:25:12.165Z,79.54
2023-04-18T16:27:57.521Z,79.83
2023-04-18T16:30:43.954Z,79.52
2023-04-18T16:33:29.541Z,79.48
2023-04-18T16:36:15.467Z,79.21
2023-04-18T16:39:01.220Z,80.02
2023-04-18T16:41:46.575Z,79.37
2023-04-18T16:44:33.271Z,79.15
2023-04-18T16:47:19.261Z,79.93
2023-04-18T16:50:05.924Z,79.92
2023-04-18T16:52:51.121Z,79.50
2023-04-18T16:55:36.680Z,79.98
2023-04-18T16:58:23.202Z,79.88
2023-04-18T17:01:09.049Z,79.25
2023-04-18T17:03:54.579Z,79.11
2023-04-18T17:06:42.190Z,79.81
2023-04-18T17:09:27.877Z,79.48
2023-04-18T17:12:13.187Z,79.44
2023-04-18T17:15:02.589Z,79.58
2023-04-18T17:17:48.542Z,79.58
2023-04-18T17:20:35.924Z,79.44
2023-04-18T17:23:21.967Z,80.03
2023-04-18T17:26:08.592Z,79.84
2023-04-18T17:28:54.295Z,79.13
2023-04-18T17:31:39.855Z,79.53
2023-04-18T17:34:25.656Z,79.30
2023-04-18T17:37:11.697Z,79.32
2023-04-18T17:39:59.012Z,79.59
2023-04-18T17:42:44.407Z,79.97
2023-04-18T17:45:29.951Z,79.93
2023-04-18T17:48:16.350Z,79.94
2023-04-18T17:51:02.228Z,79.77
2023-04-18T17:53:47.933Z,80.20
2023-04-18T17:56:33.437Z,80.17
2023-04-18T17:59:19.145Z,79.70
2023-04-18T18:02:05.549Z,79.33
2023-04-18T18:04:51.708Z,79.22
2023-04-18T18:07:38.382Z,79.34
2023-04-18T18:10:24.535Z,79.27
2023-04-18T18:13:10.107Z,79.99
2023-04-18T18:15:57.252Z,79.79
2023-04-18T18:18:46.539Z,79.87
2023-04-18T18:21:31.799Z,79.81
2023-04-18T18:24:18.752Z,79.96
2023-04-18T18:27:04.697Z,79.54
2023-04-18T18:29:51.380Z,79.37
2023-04-18T18:32:36.893Z,79.69
2023-04-18T18:35:22.350Z,79.52
2023-04-18T18:38:08.060Z,79.36
2023-04-18T18:40:53.538Z,79.57
2023-04-18T18:43:38.929Z,79.34
2023-04-18T18:46:24.569Z,79.68
2023-04-18T18:49:10.360Z,79.07
2023-04-18T18:51:56.955Z,79.21
2023-04-18T18:54:42.866Z,79.59
2023-04-18T18:57:28.398Z,78.96
2023-04-18T19:00:14.309Z,79.58
2023-04-18T19:03:00.404Z,79.43
2023-04-18T19:05:46.549Z,79.09
2023-04-18T19:08:31.925Z,79.52
2023-04-18T19:11:18.910Z,79.29
2023-04-18T19:14:04.693Z,79.76
2023-04-18T19:16:50.720Z,79.93
2023-04-18T19:19:36.563Z,79.76
2023-04-18T19:22:22.371Z,79.69
2023-04-18T19:25:08.926Z,79.66
2023-04-18T19:27:54.145Z,79.83
2023-04-18T19:30:40.160Z,79.96
2023-04-18T19:33:26.352Z,80.38
2023-04-18T19:36:12.484Z,80.09
2023-04-18T19:38:58.217Z,79.49
2023-04-18T19:41:43.639Z,80.00
2023-04-18T19:44:31.241Z,79.89
2023-04-18T19:47:16.752Z,79.54
2023-04-18T19:50:02.365Z,79.97
2023-04-18T19:52:48.159Z,79.53
2023-04-18T19:55:33.337Z,80.33
2023-04-18T19:58:45.223Z,79.71
2023-04-18T20:01:31.282Z,80.43
2023-04-18T20:04:17.186Z,80.07
2023-04-18T20:07:03.142Z,79.51
2023-04-18T20:09:48.670Z,80.46
2023-04-18T20:12:34.457Z,80.43
2023-04-18T20:15:20.023Z,80.05
2023-04-18T20:18:05.494Z,79.71
2023-04-18T20:20:51.363Z,80.29
2023-04-18T20:23:37.703Z,80.67
2023-04-18T20:26:23.403Z,80.25
2023-04-18T20:29:08.971Z,80.33
2023-04-18T20:31:54.592Z,80.23
2023-04-18T20:34:40.360Z,80.35
2023-04-18T20:37:27.813Z,80.20
2023-04-18T20:40:13.397Z,80.42
2023-04-18T20:42:58.983Z,80.60
2023-04-18T20:45:46.032Z,80.61
2023-04-18T20:48:31.651Z,79.77
2023-04-18T20:51:17.219Z,80.54
2023-04-18T20:54:03.457Z,80.21
2023-04-18T20:56:49.018Z,80.34
2023-04-18T20:59:34.454Z,80.25
2023-04-18T21:02:19.915Z,80.56
2023-04-18T21:05:05.869Z,80.47
2023-04-18T21:07:51.332Z,80.38
2023-04-18T21:10:36.809Z,80.79
2023-04-18T21:13:22.064Z,80.46
2023-04-18T21:16:10.247Z,80.37
2023-04-18T21:18:56.085Z,80.41
2023-04-18T21:21:41.557Z,80.32
2023-04-18T21:24:26.920Z,80.35
2023-04-18T21:27:12.280Z,80.65
2023-04-18T21:29:57.588Z,80.82
2023-04-18T21:32:43.083Z,81.14
2023-04-18T21:35:30.084Z,80.76
2023-04-18T21:38:15.815Z,80.57
2023-04-18T21:41:01.790Z,80.66
2023-04-18T21:43:47.853Z,81.01
2023-04-18T21:46:33.620Z,80.64
2023-04-18T21:49:19.676Z,80.76
2023-04-18T21:52:05.382Z,80.98
2023-04-18T21:54:51.178Z,80.36
2023-04-18T21:57:36.530Z,80.69
2023-04-18T22:00:22.079Z,80.50
2023-04-18T22:03:08.892Z,81.10
2023-04-18T22:05:58.174Z,80.53
2023-04-18T22:08:43.887Z,80.98
2023-04-18T22:11:29.393Z,80.59
2023-04-18T22:14:15.061Z,81.34
2023-04-18T22:17:04.877Z,80.89
2023-04-18T22:19:50.714Z,80.95
2023-04-18T22:22:35.855Z,81.18
2023-04-18T22:25:21.530Z,80.73
2023-04-18T22:28:07.291Z,81.44
2023-04-18T22:30:53.075Z,81.00
2023-04-18T22:33:38.505Z,80.80
2023-04-18T22:36:25.084Z,81.17
2023-04-18T22:39:12.134Z,80.55
2023-04-18T22:41:57.528Z,81.46
2023-04-18T22:44:42.908Z,80.67
2023-04-18T22:47:28.460Z,81.20
2023-04-18T22:50:14.729Z,81.08
2023-04-18T22:53:00.347Z,80.95
2023-04-18T22:55:46.469Z,81.37
2023-04-18T22:58:32.013Z,81.40
2023-04-18T23:01:17.935Z,80.79
2023-04-18T23:04:03.735Z,80.80
2023-04-18T23:06:49.511Z,81.84
2023-04-18T23:09:35.094Z,82.14
2023-04-18T23:12:21.101Z,81.42
2023-04-18T23:15:07.297Z,81.59
2023-04-18T23:17:53.885Z,81.67
2023-04-18T23:20:39.717Z,80.98
2023-04-18T23:23:25.268Z,81.10
2023-04-18T23:26:16.841Z,80.87
2023-04-18T23:29:02.425Z,81.66
2023-04-18T23:31:48.222Z,81.33
2023-04-18T23:34:33.656Z,81.07
2023-04-18T23:37:19.533Z,81.24
2023-04-18T23:40:06.973Z,81.67
2023-04-18T23:42:52.604Z,81.36
2023-04-18T23:45:38.095Z,81.65
2023-04-18T23:48:23.569Z,81.69
2023-04-18T23:51:09.130Z,81.72
2023-04-18T23:53:54.506Z,81.94
2023-04-18T23:56:39.833Z,81.25
2023-04-18T23:59:25.357Z,81.82
